createdAt,value
2024-01-29T00:01:13.136Z,16.27
2024-01-29T00:03:41.125Z,16.77
2024-01-29T00:06:09.022Z,17.33
2024-01-29T00:08:36.617Z,20.60
2024-01-29T00:11:04.330Z,16.85
2024-01-29T00:13:32.025Z,20.15
2024-01-29T00:16:00.640Z,16.00
2024-01-29T00:18:28.541Z,20.73
2024-01-29T00:20:58.881Z,19.45
2024-01-29T00:23:26.415Z,14.93
2024-01-29T00:25:54.128Z,19.80
2024-01-29T00:28:21.663Z,18.70
2024-01-29T00:30:49.678Z,18.30
2024-01-29T00:33:17.377Z,20.27
2024-01-29T00:35:45.385Z,17.33
2024-01-29T00:38:13.068Z,16.67
2024-01-29T00:40:40.562Z,16.42
2024-01-29T00:43:08.322Z,20.85
2024-01-29T00:45:36.305Z,16.70
2024-01-29T00:48:04.308Z,17.50
2024-01-29T00:50:32.240Z,19.30
2024-01-29T00:52:59.763Z,18.92
2024-01-29T00:55:27.269Z,18.92
2024-01-29T00:57:54.939Z,15.38
2024-01-29T01:00:22.855Z,15.38
2024-01-29T01:02:50.450Z,16.35
2024-01-29T01:05:18.169Z,19.35
2024-01-29T01:07:45.962Z,14.00
2024-01-29T01:10:13.784Z,15.70
2024-01-29T01:12:41.420Z,18.98
2024-01-29T01:15:10.044Z,20.52
2024-01-29T01:17:38.637Z,21.35
2024-01-29T01:20:07.772Z,18.05
2024-01-29T01:22:35.348Z,20.45
2024-01-29T01:25:03.212Z,17.92
2024-01-29T01:27:30.722Z,19.00
2024-01-29T01:29:58.420Z,17.52
2024-01-29T01:32:28.901Z,15.75
2024-01-29T01:34:56.717Z,18.17
2024-01-29T01:37:24.294Z,15.15
2024-01-29T01:39:54.615Z,17.65
2024-01-29T01:42:23.998Z,15.60
2024-01-29T01:44:51.699Z,15.98
2024-01-29T01:47:19.545Z,13.45
2024-01-29T01:49:47.801Z,14.10
2024-01-29T01:52:18.942Z,16.27
2024-01-29T01:54:47.573Z,12.95
2024-01-29T01:57:16.889Z,13.20
2024-01-29T01:59:45.649Z,12.50
2024-01-29T02:02:14.592Z,14.25
2024-01-29T02:04:42.326Z,10.65
2024-01-29T02:07:10.327Z,13.13
2024-01-29T02:09:38.216Z,13.10
2024-01-29T02:12:06.193Z,14.05
2024-01-29T02:14:34.184Z,10.63
2024-01-29T02:17:02.128Z,12.05
2024-01-29T02:19:49.810Z,12.15
2024-01-29T02:22:17.283Z,12.05
2024-01-29T02:24:44.817Z,11.48
2024-01-29T02:27:12.497Z,12.05
2024-01-29T02:29:40.290Z,7.78
2024-01-29T02:32:07.830Z,11.95
2024-01-29T02:34:35.651Z,11.50
2024-01-29T02:37:03.352Z,11.98
2024-01-29T02:39:31.157Z,12.77
2024-01-29T02:41:59.118Z,11.18
2024-01-29T02:44:26.729Z,9.45
2024-01-29T02:46:56.214Z,9.10
2024-01-29T02:49:23.807Z,13.63
2024-01-29T02:51:51.404Z,13.40
2024-01-29T02:54:19.168Z,13.38
2024-01-29T02:56:46.594Z,10.20
2024-01-29T02:59:14.233Z,9.45
2024-01-29T03:01:41.736Z,13.65
2024-01-29T03:04:09.507Z,11.55
2024-01-29T03:06:37.149Z,10.75
2024-01-29T03:09:05.312Z,11.27
2024-01-29T03:11:32.920Z,10.27
2024-01-29T03:14:02.285Z,11.70
2024-01-29T03:16:30.012Z,9.88
2024-01-29T03:18:57.726Z,12.02
2024-01-29T03:21:27.702Z,12.80
2024-01-29T03:23:58.312Z,13.23
2024-01-29T03:26:26.177Z,12.00
2024-01-29T03:28:54.001Z,10.27
2024-01-29T03:31:21.935Z,9.93
2024-01-29T03:33:50.344Z,10.48
2024-01-29T03:36:18.117Z,11.98
2024-01-29T03:38:45.687Z,11.95
2024-01-29T03:41:13.447Z,11.07
2024-01-29T03:43:41.196Z,12.10
2024-01-29T03:46:08.630Z,10.82
2024-01-29T03:48:37.136Z,10.88
2024-01-29T03:51:04.942Z,10.38
2024-01-29T03:53:32.530Z,13.38
2024-01-29T03:55:59.963Z,11.32
2024-01-29T03:58:28.012Z,12.13
2024-01-29T04:00:56.034Z,13.18
2024-01-29T04:03:23.681Z,10.82
2024-01-29T04:05:51.388Z,10.82
2024-01-29T04:08:19.351Z,11.05
2024-01-29T04:10:46.930Z,9.93
2024-01-29T04:13:14.442Z,11.60
2024-01-29T04:15:42.326Z,12.90
2024-01-29T04:18:10.154Z,12.98
2024-01-29T04:20:37.839Z,14.02
2024-01-29T04:23:05.537Z,14.40
2024-01-29T04:25:32.920Z,14.52
2024-01-29T04:28:00.488Z,15.77
2024-01-29T04:30:28.396Z,18.42
2024-01-29T04:32:56.192Z,11.18
2024-01-29T04:35:24.077Z,12.82
2024-01-29T04:37:51.662Z,11.60
2024-01-29T04:40:19.391Z,11.15
2024-01-29T04:42:47.407Z,14.30
2024-01-29T04:45:15.165Z,12.05
2024-01-29T04:47:42.902Z,12.43
2024-01-29T04:50:10.771Z,11.75
2024-01-29T04:52:38.255Z,13.40
2024-01-29T04:55:06.379Z,14.20
2024-01-29T04:57:35.078Z,11.43
2024-01-29T05:00:04.906Z,13.55
2024-01-29T05:05:00.480Z,9.77
2024-01-29T05:07:28.282Z,11.48
2024-01-29T05:09:55.959Z,11.18
2024-01-29T05:12:25.080Z,14.48
2024-01-29T05:14:52.800Z,14.23
2024-01-29T05:17:20.355Z,11.45
2024-01-29T05:19:48.747Z,11.55
2024-01-29T05:22:16.563Z,17.30
2024-01-29T05:24:44.347Z,13.07
2024-01-29T05:27:12.096Z,12.48
2024-01-29T05:29:39.705Z,19.42
2024-01-29T05:32:07.818Z,17.60
2024-01-29T05:34:35.520Z,16.05
2024-01-29T05:37:03.212Z,17.63
2024-01-29T05:39:30.827Z,18.08
2024-01-29T05:41:58.579Z,16.75
2024-01-29T05:44:26.163Z,13.63
2024-01-29T05:46:53.739Z,14.95
2024-01-29T05:49:22.746Z,15.45
2024-01-29T05:51:52.930Z,13.60
2024-01-29T05:54:20.575Z,18.40
2024-01-29T05:56:51.215Z,18.00
2024-01-29T05:59:19.776Z,17.33
2024-01-29T06:01:47.901Z,16.90
2024-01-29T06:04:15.758Z,15.55
2024-01-29T06:06:44.716Z,19.95
2024-01-29T06:09:12.703Z,17.50
2024-01-29T06:11:40.444Z,21.92
2024-01-29T06:14:08.360Z,15.80
2024-01-29T06:16:35.974Z,15.48
2024-01-29T06:19:03.673Z,15.38
2024-01-29T06:21:32.258Z,13.52
2024-01-29T06:23:59.856Z,18.88
2024-01-29T06:26:27.691Z,19.17
2024-01-29T06:28:56.534Z,20.77
2024-01-29T06:31:25.402Z,16.98
2024-01-29T06:33:57.547Z,16.65
2024-01-29T06:36:26.769Z,17.83
2024-01-29T06:38:54.484Z,16.52
2024-01-29T06:41:23.348Z,14.07
2024-01-29T06:43:51.267Z,14.13
2024-01-29T06:46:19.075Z,17.45
2024-01-29T06:48:46.686Z,16.38
2024-01-29T06:51:16.471Z,15.85
2024-01-29T06:53:44.434Z,25.13
2024-01-29T06:56:11.864Z,21.08
2024-01-29T06:58:39.504Z,17.70
2024-01-29T07:01:08.541Z,15.05
2024-01-29T07:03:36.557Z,18.70
2024-01-29T07:06:05.411Z,16.02
2024-01-29T07:08:33.065Z,17.88
2024-01-29T07:11:02.438Z,18.48
2024-01-29T07:13:31.722Z,20.33
2024-01-29T07:16:00.998Z,22.50
2024-01-29T07:18:28.696Z,17.55
2024-01-29T07:20:56.557Z,15.57
2024-01-29T07:23:24.653Z,16.67
2024-01-29T07:25:52.312Z,16.05
2024-01-29T07:28:20.038Z,15.55
2024-01-29T07:30:47.639Z,19.00
2024-01-29T07:33:15.344Z,18.55
2024-01-29T07:35:43.658Z,19.48
2024-01-29T07:38:11.510Z,19.23
2024-01-29T07:40:39.016Z,17.65
2024-01-29T07:43:06.636Z,16.27
2024-01-29T07:45:34.939Z,14.30
2024-01-29T07:48:06.078Z,18.77
2024-01-29T07:50:34.192Z,19.08
2024-01-29T07:53:03.832Z,16.30
2024-01-29T07:55:31.592Z,20.38
2024-01-29T07:57:59.200Z,18.15
2024-01-29T08:00:27.300Z,19.63
2024-01-29T08:02:55.349Z,16.38
2024-01-29T08:05:23.103Z,16.30
2024-01-29T08:07:51.017Z,15.40
2024-01-29T08:10:18.562Z,11.30
2024-01-29T08:12:47.787Z,17.30
2024-01-29T08:15:17.233Z,14.88
2024-01-29T08:17:45.055Z,14.15
2024-01-29T08:20:12.974Z,12.98
2024-01-29T08:22:40.768Z,15.23
2024-01-29T08:25:08.686Z,10.93
2024-01-29T08:27:36.884Z,13.20
2024-01-29T08:30:05.174Z,16.77
2024-01-29T08:32:33.445Z,14.07
2024-01-29T08:35:01.365Z,14.27
2024-01-29T08:37:29.345Z,16.45
2024-01-29T08:39:56.977Z,14.27
2024-01-29T08:42:24.849Z,14.32
2024-01-29T08:44:57.454Z,14.85
2024-01-29T08:47:25.831Z,13.90
2024-01-29T08:49:53.784Z,14.18
2024-01-29T08:52:21.376Z,15.95
2024-01-29T08:54:50.169Z,16.15
2024-01-29T08:57:18.690Z,20.33
2024-01-29T08:59:46.253Z,16.08
2024-01-29T09:02:14.383Z,17.45
2024-01-29T09:04:42.941Z,16.20
2024-01-29T09:07:11.202Z,15.07
2024-01-29T09:09:38.737Z,12.68
2024-01-29T09:12:06.589Z,14.27
2024-01-29T09:14:34.302Z,16.95
2024-01-29T09:17:01.985Z,13.98
2024-01-29T09:19:29.590Z,10.95
2024-01-29T09:21:57.376Z,14.63
2024-01-29T09:24:24.856Z,17.13
2024-01-29T09:26:52.773Z,14.75
2024-01-29T09:29:20.332Z,15.32
2024-01-29T09:31:47.761Z,16.65
2024-01-29T09:34:15.601Z,17.95
2024-01-29T09:36:43.414Z,13.52
2024-01-29T09:39:11.215Z,13.57
2024-01-29T09:41:40.189Z,16.20
2024-01-29T09:44:09.117Z,13.15
2024-01-29T09:46:41.582Z,16.63
2024-01-29T09:49:10.100Z,15.35
2024-01-29T09:51:37.826Z,11.93
2024-01-29T09:54:06.610Z,16.10
2024-01-29T09:56:34.195Z,15.63
2024-01-29T09:59:02.026Z,16.98
2024-01-29T10:01:30.681Z,20.45
2024-01-29T10:03:59.036Z,14.65
2024-01-29T10:06:28.932Z,13.50
2024-01-29T10:08:58.694Z,18.98
2024-01-29T10:11:27.441Z,10.98
2024-01-29T10:14:01.034Z,17.90
2024-01-29T10:16:28.752Z,17.25
2024-01-29T10:18:58.299Z,17.02
2024-01-29T10:21:26.227Z,14.55
2024-01-29T10:24:00.601Z,14.73
2024-01-29T10:26:28.389Z,16.15
2024-01-29T10:29:03.964Z,14.75
2024-01-29T10:31:32.689Z,17.92
2024-01-29T10:34:01.351Z,17.00
2024-01-29T10:36:32.056Z,16.15
2024-01-29T10:39:04.980Z,18.23
2024-01-29T10:41:34.043Z,17.23
2024-01-29T10:44:05.387Z,17.50
2024-01-29T10:46:39.265Z,17.02
2024-01-29T10:49:09.915Z,15.73
2024-01-29T10:51:38.302Z,17.65
2024-01-29T10:54:06.879Z,17.63
2024-01-29T10:56:34.290Z,17.05
2024-01-29T10:59:03.732Z,15.93
2024-01-29T11:04:02.428Z,13.68
2024-01-29T11:06:51.058Z,16.70
2024-01-29T11:09:24.039Z,14.80
2024-01-29T11:11:54.973Z,15.02
2024-01-29T11:14:26.791Z,12.68
2024-01-29T11:16:55.189Z,16.85
2024-01-29T11:19:25.145Z,20.27
2024-01-29T11:21:52.951Z,16.90
2024-01-29T11:24:23.635Z,15.90
2024-01-29T11:26:53.780Z,19.55
2024-01-29T11:29:24.134Z,20.10
2024-01-29T11:31:55.232Z,19.65
2024-01-29T11:34:30.248Z,12.18
2024-01-29T11:36:58.988Z,18.75
2024-01-29T11:39:29.272Z,18.60
2024-01-29T11:41:57.980Z,22.17
2024-01-29T11:44:27.282Z,22.33
2024-01-29T11:46:56.704Z,19.83
2024-01-29T11:49:29.135Z,19.15
2024-01-29T11:51:57.529Z,17.25
2024-01-29T11:54:26.015Z,15.80
2024-01-29T11:56:53.743Z,19.20
2024-01-29T11:59:21.346Z,18.63
2024-01-29T12:01:51.499Z,21.13
2024-01-29T12:04:20.046Z,19.40
2024-01-29T12:06:52.737Z,17.98
2024-01-29T12:09:20.704Z,17.35
2024-01-29T12:11:48.383Z,22.23
2024-01-29T12:14:16.713Z,21.38
2024-01-29T12:16:44.502Z,21.23
2024-01-29T12:19:24.606Z,19.63
2024-01-29T12:21:52.678Z,18.17
2024-01-29T12:24:21.782Z,19.05
2024-01-29T12:27:07.821Z,21.40
2024-01-29T12:32:21.902Z,16.08
2024-01-29T12:34:49.665Z,20.25
2024-01-29T12:37:26.145Z,18.48
2024-01-29T12:39:57.716Z,20.23
2024-01-29T12:42:30.147Z,21.08
2024-01-29T12:45:08.894Z,18.55
2024-01-29T12:47:38.721Z,19.63
2024-01-29T12:52:34.582Z,20.30
2024-01-29T12:55:02.126Z,18.45
2024-01-29T12:57:31.403Z,21.45
2024-01-29T12:59:58.949Z,14.95
2024-01-29T13:02:26.807Z,16.48
2024-01-29T13:04:54.854Z,18.83
2024-01-29T13:07:22.491Z,21.55
2024-01-29T13:09:53.495Z,20.70
2024-01-29T13:12:21.808Z,19.85
2024-01-29T13:14:49.800Z,22.15
2024-01-29T13:17:17.694Z,18.83
2024-01-29T13:19:45.435Z,19.40
2024-01-29T13:22:13.240Z,21.63
2024-01-29T13:24:41.051Z,20.73
2024-01-29T13:27:08.823Z,23.88
2024-01-29T13:29:37.710Z,25.10
2024-01-29T13:32:05.488Z,25.40
2024-01-29T13:34:33.250Z,19.30
2024-01-29T13:37:01.040Z,26.50
2024-01-29T13:39:28.722Z,25.30
2024-01-29T13:41:56.410Z,24.42
2024-01-29T13:44:24.097Z,20.02
2024-01-29T13:46:52.415Z,21.55
2024-01-29T13:49:20.220Z,24.60
2024-01-29T13:51:48.146Z,19.30
2024-01-29T13:54:15.752Z,25.80
2024-01-29T13:56:43.620Z,24.73
2024-01-29T13:59:11.415Z,26.52
2024-01-29T14:01:43.997Z,24.08
2024-01-29T14:04:43.664Z,23.75
2024-01-29T14:07:12.469Z,25.30
2024-01-29T14:09:40.266Z,28.02
2024-01-29T14:12:08.406Z,23.58
2024-01-29T14:14:41.239Z,26.27
2024-01-29T14:17:14.377Z,25.13
2024-01-29T14:19:42.156Z,26.55
2024-01-29T14:22:09.914Z,26.02
2024-01-29T14:24:38.668Z,22.42
2024-01-29T14:27:06.485Z,20.95
2024-01-29T14:29:34.163Z,22.67
2024-01-29T14:32:02.200Z,26.38
2024-01-29T14:34:29.874Z,23.90
2024-01-29T14:36:57.750Z,19.92
2024-01-29T14:39:25.716Z,22.67
2024-01-29T14:41:53.304Z,24.95
2024-01-29T14:44:20.922Z,24.77
2024-01-29T14:46:48.924Z,27.75
2024-01-29T14:49:17.718Z,25.02
2024-01-29T14:51:47.254Z,20.40
2024-01-29T14:54:14.840Z,26.25
2024-01-29T14:56:42.524Z,23.02
2024-01-29T14:59:10.165Z,19.10
2024-01-29T15:01:41.504Z,24.70
2024-01-29T15:04:13.220Z,22.83
2024-01-29T15:06:41.912Z,21.13
2024-01-29T15:09:10.058Z,24.37
2024-01-29T15:11:38.272Z,24.58
2024-01-29T15:14:05.926Z,27.23
2024-01-29T15:16:33.797Z,14.60
2024-01-29T15:19:01.881Z,29.35
2024-01-29T15:21:29.589Z,22.17
2024-01-29T15:23:59.138Z,20.48
2024-01-29T15:26:29.975Z,20.33
2024-01-29T15:28:57.727Z,24.98
2024-01-29T15:31:29.419Z,25.95
2024-01-29T15:33:57.717Z,24.15
2024-01-29T15:36:25.290Z,24.42
2024-01-29T15:38:53.003Z,24.77
2024-01-29T15:41:20.799Z,25.95
2024-01-29T15:43:48.549Z,22.85
2024-01-29T15:46:17.302Z,26.60
2024-01-29T15:48:44.919Z,24.98
2024-01-29T15:51:14.639Z,22.80
2024-01-29T15:53:43.102Z,17.75
2024-01-29T15:56:10.889Z,21.65
2024-01-29T15:58:38.707Z,22.38
2024-01-29T16:01:32.305Z,24.38
2024-01-29T16:04:00.068Z,19.35
2024-01-29T16:06:27.670Z,20.25
2024-01-29T16:08:55.601Z,17.00
2024-01-29T16:11:23.135Z,24.52
2024-01-29T16:13:50.709Z,21.13
2024-01-29T16:16:18.345Z,20.50
2024-01-29T16:18:46.260Z,23.45
2024-01-29T16:21:23.132Z,18.35
2024-01-29T16:23:52.824Z,17.70
2024-01-29T16:26:21.140Z,20.70
2024-01-29T16:28:49.059Z,23.17
2024-01-29T16:31:16.989Z,25.00
2024-01-29T16:33:44.873Z,20.63
2024-01-29T16:36:24.886Z,24.48
2024-01-29T16:38:54.165Z,23.35
2024-01-29T16:41:26.311Z,18.73
2024-01-29T16:43:55.364Z,20.40
2024-01-29T16:46:24.396Z,19.05
2024-01-29T16:48:52.346Z,20.88
2024-01-29T16:51:23.789Z,23.45
2024-01-29T16:53:52.653Z,26.70
2024-01-29T16:56:30.600Z,28.98
2024-01-29T16:59:00.629Z,27.15
2024-01-29T17:01:29.429Z,30.80
2024-01-29T17:03:57.842Z,24.70
2024-01-29T17:06:30.938Z,25.63
2024-01-29T17:08:59.112Z,23.10
2024-01-29T17:11:27.268Z,28.92
2024-01-29T17:13:54.997Z,27.95
2024-01-29T17:16:22.969Z,31.00
2024-01-29T17:18:51.369Z,13.48
2024-01-29T17:21:19.096Z,24.65
2024-01-29T17:23:46.854Z,24.33
2024-01-29T17:26:15.299Z,23.05
2024-01-29T17:28:46.421Z,29.50
2024-01-29T17:31:14.600Z,25.17
2024-01-29T17:33:42.427Z,28.48
2024-01-29T17:36:10.717Z,22.85
2024-01-29T17:38:39.469Z,22.42
2024-01-29T17:41:07.034Z,31.00
2024-01-29T17:43:34.599Z,31.60
2024-01-29T17:46:02.285Z,29.60
2024-01-29T17:48:30.154Z,28.90
2024-01-29T17:50:59.009Z,25.95
2024-01-29T17:53:29.792Z,31.25
2024-01-29T17:55:57.879Z,34.10
2024-01-29T17:58:26.180Z,29.00
2024-01-29T18:00:54.028Z,30.90
2024-01-29T18:03:24.152Z,25.90
2024-01-29T18:05:51.848Z,29.00
2024-01-29T18:08:20.976Z,30.90
2024-01-29T18:10:48.517Z,25.63
2024-01-29T18:13:17.123Z,25.85
2024-01-29T18:15:44.823Z,23.52
2024-01-29T18:18:13.798Z,27.05
2024-01-29T18:20:41.390Z,26.33
2024-01-29T18:23:09.998Z,27.27
2024-01-29T18:25:40.519Z,27.92
2024-01-29T18:28:08.204Z,20.17
2024-01-29T18:30:43.879Z,25.10
2024-01-29T18:33:12.225Z,27.25
2024-01-29T18:35:39.934Z,25.35
2024-01-29T18:38:07.525Z,24.25
2024-01-29T18:40:37.740Z,15.80
2024-01-29T18:43:05.746Z,23.58
2024-01-29T18:45:33.401Z,26.02
2024-01-29T18:48:02.912Z,23.00
2024-01-29T18:50:30.625Z,23.17
2024-01-29T18:52:58.377Z,23.67
2024-01-29T18:55:26.603Z,20.85
2024-01-29T18:57:55.329Z,23.90
2024-01-29T19:00:23.208Z,22.60
2024-01-29T19:02:50.791Z,25.55
2024-01-29T19:05:18.539Z,24.25
2024-01-29T19:07:49.399Z,18.15
2024-01-29T19:10:17.610Z,18.95
2024-01-29T19:12:46.308Z,20.20
2024-01-29T19:15:13.986Z,19.65
2024-01-29T19:17:41.934Z,23.65
2024-01-29T19:20:10.567Z,19.67
2024-01-29T19:22:37.997Z,20.92
2024-01-29T19:25:07.036Z,22.33
2024-01-29T19:27:34.683Z,20.70
2024-01-29T19:30:02.318Z,19.83
2024-01-29T19:32:35.916Z,19.13
2024-01-29T19:35:03.881Z,21.48
2024-01-29T19:37:35.926Z,19.27
2024-01-29T19:40:04.218Z,17.23
2024-01-29T19:42:31.780Z,18.20
2024-01-29T19:44:59.421Z,18.70
2024-01-29T19:47:26.968Z,18.85
2024-01-29T19:49:58.996Z,21.15
2024-01-29T19:52:29.531Z,17.65
2024-01-29T19:54:57.589Z,17.33
2024-01-29T19:57:29.027Z,16.38
2024-01-29T19:59:56.570Z,18.15
2024-01-29T20:02:24.085Z,17.80
2024-01-29T20:04:56.154Z,17.02
2024-01-29T20:07:23.752Z,19.58
2024-01-29T20:09:51.300Z,19.33
2024-01-29T20:12:22.275Z,18.90
2024-01-29T20:14:50.023Z,22.10
2024-01-29T20:17:17.912Z,19.52
2024-01-29T20:19:46.812Z,19.88
2024-01-29T20:22:14.494Z,23.60
2024-01-29T20:24:42.276Z,23.17
2024-01-29T20:27:09.778Z,26.00
2024-01-29T20:29:37.275Z,22.77
2024-01-29T20:32:05.687Z,20.92
2024-01-29T20:34:35.833Z,18.00
2024-01-29T20:37:03.947Z,24.05
2024-01-29T20:39:32.544Z,18.67
2024-01-29T20:42:01.537Z,22.45
2024-01-29T20:44:30.442Z,16.88
2024-01-29T20:46:58.202Z,18.30
2024-01-29T20:49:26.296Z,17.27
2024-01-29T20:51:54.224Z,12.15
2024-01-29T20:54:21.741Z,14.90
2024-01-29T20:56:49.212Z,18.85
2024-01-29T20:59:16.721Z,15.20
2024-01-29T21:01:47.535Z,20.48
2024-01-29T21:04:15.936Z,16.02
2024-01-29T21:06:43.489Z,17.75
2024-01-29T21:09:11.267Z,17.42
2024-01-29T21:11:38.890Z,18.35
2024-01-29T21:14:06.633Z,16.13
2024-01-29T21:16:34.584Z,16.58
2024-01-29T21:19:02.330Z,17.08
2024-01-29T21:21:31.202Z,14.93
2024-01-29T21:24:00.277Z,16.20
2024-01-29T21:26:28.469Z,16.67
2024-01-29T21:28:56.403Z,17.15
2024-01-29T21:31:24.337Z,17.85
2024-01-29T21:33:52.071Z,19.10
2024-01-29T21:36:20.863Z,17.27
2024-01-29T21:38:48.528Z,16.55
2024-01-29T21:41:17.154Z,16.20
2024-01-29T21:43:44.729Z,15.55
2024-01-29T21:46:12.728Z,17.90
2024-01-29T21:48:40.443Z,16.20
2024-01-29T21:51:08.355Z,16.33
2024-01-29T21:53:36.143Z,14.50
2024-01-29T21:56:04.298Z,17.20
2024-01-29T21:58:31.997Z,15.43
2024-01-29T22:00:59.705Z,12.38
2024-01-29T22:03:27.488Z,15.63
2024-01-29T22:05:55.332Z,18.83
2024-01-29T22:08:23.447Z,17.90
2024-01-29T22:10:50.991Z,17.00
2024-01-29T22:13:18.993Z,16.48
2024-01-29T22:15:46.813Z,16.98
2024-01-29T22:18:14.443Z,15.93
2024-01-29T22:20:42.416Z,13.45
2024-01-29T22:23:09.833Z,16.73
2024-01-29T22:25:37.416Z,12.55
2024-01-29T22:28:05.734Z,15.60
2024-01-29T22:30:33.465Z,14.77
2024-01-29T22:33:01.143Z,18.38
2024-01-29T22:35:29.354Z,16.65
2024-01-29T22:37:57.265Z,15.63
2024-01-29T22:40:25.960Z,14.80
2024-01-29T22:42:53.694Z,15.63
2024-01-29T22:45:21.619Z,15.38
2024-01-29T22:47:51.272Z,16.23
2024-01-29T22:50:19.608Z,14.68
2024-01-29T22:52:47.066Z,17.48
2024-01-29T22:55:14.911Z,18.20
2024-01-29T22:57:42.452Z,15.60
2024-01-29T23:00:18.520Z,17.73
2024-01-29T23:02:47.333Z,18.77
2024-01-29T23:05:14.900Z,15.50
2024-01-29T23:07:43.599Z,20.30
2024-01-29T23:10:11.487Z,24.67
2024-01-29T23:12:39.367Z,23.50
2024-01-29T23:15:09.076Z,21.27
2024-01-29T23:20:07.383Z,18.95
2024-01-29T23:22:34.939Z,22.20
2024-01-29T23:25:02.862Z,20.33
2024-01-29T23:27:33.613Z,21.52
2024-01-29T23:30:03.036Z,22.55
2024-01-29T23:32:31.771Z,23.35
2024-01-29T23:34:59.964Z,21.20
2024-01-29T23:37:30.756Z,22.55
2024-01-29T23:39:58.542Z,20.75
2024-01-29T23:42:27.713Z,19.33
2024-01-29T23:44:55.978Z,19.90
2024-01-29T23:47:23.642Z,21.83
2024-01-29T23:49:51.369Z,23.05
2024-01-29T23:52:29.587Z,25.80
2024-01-29T23:54:57.428Z,30.38
2024-01-29T23:57:25.632Z,32.63
2024-01-29T23:59:53.391Z,32.42
